CW8428 Weather Reports


Display with metric or nautical units.
time (UTC)temp
F
wind
direction
speed
MPH
gust
MPH
rain 1hr
in
rain 24hr
in
rain mn
in
humidity
%
barometer
mb
20240621051645 64 138 2.0 6.0 0.00 0.00 0.00 42 1015.5
20240621050619 64 124 1.0 7.0 0.00 0.00 0.00 42 1015.5
20240621045621 65 148 4.0 7.0 0.00 0.00 0.00 42 1015.4
20240621044631 65 144 2.0 4.0 0.00 0.00 0.00 42 1015.4
20240621043621 66 150 1.0 5.0 0.00 0.00 0.00 42 1015.3
20240621042623 67 102 2.0 6.0 0.00 0.00 0.00 39 1015.2
20240621041617 67 105 4.0 9.0 0.00 0.00 0.00 39 1015.0
20240621040627 68 117 6.0 9.0 0.00 0.00 0.00 39 1014.9
20240621035630 70 154 2.0 6.0 0.00 0.00 0.00 36 1014.8
20240621034641 71 332 1.0 2.0 0.00 0.00 0.00 32 1014.6
20240621033614 71 332 0.0 1.0 0.00 0.00 0.00 32 1014.4
20240621032625 71 331 1.0 4.0 0.00 0.00 0.00 32 1014.3
20240621031616 71 202 0.0 6.0 0.00 0.00 0.00 33 1014.1
20240621030630 72 213 3.0 6.0 0.00 0.00 0.00 33 1014.0
20240621025612 73 266 2.0 6.0 0.00 0.00 0.00 34 1013.9
20240621024623 74 234 4.0 6.0 0.00 0.00 0.00 31 1013.9
20240621023615 75 240 3.0 7.0 0.00 0.00 0.00 30 1013.9
20240621022627 77 221 5.0 8.0 0.00 0.00 0.00 29 1013.8
20240621021619 79 257 4.0 6.0 0.00 0.00 0.00 29 1013.7
20240621020629 80 256 5.0 10.0 0.00 0.00 0.00 27 1013.5
20240621015631 81 249 5.0 8.0 0.00 0.00 0.00 25 1013.4
20240621014624 82 267 4.0 8.0 0.00 0.00 0.00 24 1013.4
20240621013615 83 264 6.0 10.0 0.00 0.00 0.00 22 1013.2
20240621012627 84 260 7.0 10.0 0.00 0.00 0.00 21 1013.1
20240621011621 84 290 7.0 10.0 0.00 0.00 0.00 22 1012.9
20240621010612 84 292 8.0 11.0 0.00 0.00 0.00 22 1012.8
20240621005613 85 302 8.0 12.0 0.00 0.00 0.00 20 1012.8
20240621004624 85 252 8.0 11.0 0.00 0.00 0.00 19 1012.7
20240621003618 86 293 9.0 12.0 0.00 0.00 0.00 20 1012.7
20240621002649 87 261 5.0 8.0 0.00 0.00 0.00 17 1012.6
20240621001617 87 253 7.0 9.0 0.00 0.00 0.00 17 1012.7
20240621000630 87 232 5.0 9.0 0.00 0.00 0.00 17 1012.7
20240620235612 87 245 7.0 10.0 0.00 0.00 0.00 17 1012.7
20240620234623 87 263 9.0 14.0 0.00 0.00 0.00 17 1012.8
20240620233632 87 257 7.0 11.0 0.00 0.00 0.00 17 1012.9
20240620232621 87 228 8.0 16.0 0.00 0.00 0.00 16 1013.0
20240620231615 88 203 7.0 15.0 0.00 0.00 0.00 16 1012.9
20240620230625 88 222 6.0 14.0 0.00 0.00 0.00 17 1013.0
20240620225627 87 227 6.0 11.0 0.00 0.00 0.00 16 1013.2
20240620224618 87 204 8.0 15.0 0.00 0.00 0.00 16 1013.3
20240620223630 87 211 8.0 14.0 0.00 0.00 0.00 16 1013.4
20240620222621 87 246 7.0 14.0 0.00 0.00 0.00 16 1013.5
20240620221611 88 255 5.0 9.0 0.00 0.00 0.00 15 1013.7
20240620220621 87 178 7.0 15.0 0.00 0.00 0.00 16 1013.9
20240620215649 87 289 8.0 12.0 0.00 0.00 0.00 20 1013.9
20240620214617 87 254 8.0 13.0 0.00 0.00 0.00 19 1014.1
20240620213627 87 275 9.0 21.0 0.00 0.00 0.00 20 1014.1
20240620212618 86 204 3.0 7.0 0.00 0.00 0.00 20 1014.2
20240620211612 85 355 4.0 10.0 0.00 0.00 0.00 19 1014.4
20240620210619 86 340 8.0 12.0 0.00 0.00 0.00 21 1014.6
20240620205626 87 251 5.0 12.0 0.00 0.00 0.00 20 1014.7
20240620204616 86 288 2.0 9.0 0.00 0.00 0.00 18 1014.8
20240620203625 86 305 6.0 10.0 0.00 0.00 0.00 19 1015.0
20240620202618 86 236 5.0 8.0 0.00 0.00 0.00 19 1015.0
20240620201626 86 299 5.0 8.0 0.00 0.00 0.00 21 1015.2
20240620200615 84 209 3.0 7.0 0.00 0.00 0.00 22 1015.3
20240620195616 84 259 3.0 9.0 0.00 0.00 0.00 21 1015.5
20240620194646 84 205 5.0 8.0 0.00 0.00 0.00 22 1015.5
20240620193619 83 309 4.0 9.0 0.00 0.00 0.00 22 1015.8
20240620192623 83 249 4.0 8.0 0.00 0.00 0.00 23 1015.8
20240620191631 81 332 2.0 4.0 0.00 0.00 0.00 22 1016.0
20240620190619 80 335 1.0 5.0 0.00 0.00 0.00 23 1016.2
20240620185622 80 317 4.0 6.0 0.00 0.00 0.00 23 1016.3
20240620184621 81 275 5.0 9.0 0.00 0.00 0.00 24 1016.4
20240620183629 80 184 2.0 5.0 0.00 0.00 0.00 23 1016.6
20240620182637 80 197 3.0 6.0 0.00 0.00 0.00 25 1016.6
20240620181624 79 275 3.0 15.0 0.00 0.00 0.00 23 1016.8
20240620180624 79 256 2.0 7.0 0.00 0.00 0.00 25 1016.9
20240620175627 77 319 2.0 7.0 0.00 0.00 0.00 25 1017.0
20240620174616 76 261 2.0 6.0 0.00 0.00 0.00 26 1017.1
20240620173626 75 232 3.0 6.0 0.00 0.00 0.00 29 1017.2
20240620172618 75 240 2.0 7.0 0.00 0.00 0.00 28 1017.4
20240620171625 74 182 4.0 6.0 0.00 0.00 0.00 30 1017.4
20240620170613 73 168 3.0 8.0 0.00 0.00 0.00 29 1017.5
20240620165613 73 146 5.0 8.0 0.00 0.00 0.00 31 1017.5
20240620164625 72 172 2.0 7.0 0.00 0.00 0.00 31 1017.6
20240620163635 72 177 2.0 7.0 0.00 0.00 0.00 31 1017.7
20240620162621 71 207 4.0 7.0 0.00 0.00 0.00 33 1017.7
20240620161626 71 85 4.0 9.0 0.00 0.00 0.00 29 1017.9
20240620160615 69 98 4.0 10.0 0.00 0.00 0.00 33 1018.0
20240620155614 67 107 8.0 10.0 0.00 0.00 0.00 35 1018.1
20240620154620 65 147 3.0 6.0 0.00 0.00 0.00 41 1018.2
20240620153628 65 143 4.0 10.0 0.00 0.00 0.00 40 1018.3
20240620152616 64 136 5.0 8.0 0.00 0.00 0.00 41 1018.4
20240620151629 63 152 5.0 10.0 0.00 0.00 0.00 42 1018.5
20240620150617 63 165 6.0 9.0 0.00 0.00 0.00 42 1018.5
20240620145617 61 132 4.0 8.0 0.00 0.00 0.00 46 1018.7
20240620144645 58 113 3.0 6.0 0.00 0.00 0.00 50 1018.8
20240620143616 57 254 1.0 3.0 0.00 0.00 0.00 57 1018.7
20240620142644 55 254 1.0 2.0 0.00 0.00 0.00 58 1018.8
20240620141650 54 131 0.0 2.0 0.00 0.00 0.00 61 1018.8
20240620140617 53 131 1.0 4.0 0.00 0.00 0.00 63 1018.9
20240620135623 52 322 1.0 2.0 0.00 0.00 0.00 64 1018.9
20240620134631 51 322 0.0 4.0 0.00 0.00 0.00 66 1018.8
20240620133619 50 273 2.0 3.0 0.00 0.00 0.00 69 1019.0
20240620132648 50 273 1.0 2.0 0.00 0.00 0.00 70 1018.8
20240620131618 49 273 0.0 2.0 0.00 0.00 0.00 69 1018.8
20240620130626 49 273 0.0 3.0 0.00 0.00 0.00 68 1018.7
20240620125626 49 273 1.0 2.0 0.00 0.00 0.00 66 1018.7
20240620124614 49 273 0.0 3.0 0.00 0.00 0.00 67 1018.5
20240620123626 49 272 1.0 4.0 0.00 0.00 0.00 68 1018.6
20240620122614 49 329 3.0 4.0 0.00 0.00 0.00 69 1018.5
20240620121621 50 148 1.0 3.0 0.00 0.00 0.00 68 1018.6
20240620120652 50 126 2.0 3.0 0.00 0.00 0.00 67 1018.4
20240620115630 50 155 2.0 3.0 0.00 0.00 0.00 66 1018.3
20240620114622 50 150 0.0 2.0 0.00 0.00 0.00 63 1018.4
20240620113630 51 150 1.0 5.0 0.00 0.00 0.00 61 1018.3
20240620112619 52 123 1.0 3.0 0.00 0.00 0.00 59 1017.9
20240620111613 52 355 1.0 3.0 0.00 0.00 0.00 60 1018.0
20240620110623 52 198 1.0 2.0 0.00 0.00 0.00 62 1018.1
20240620105624 52 200 0.0 3.0 0.00 0.00 0.00 62 1017.8
20240620104614 52 157 3.0 5.0 0.00 0.00 0.00 60 1017.7
20240620103627 53 157 1.0 3.0 0.00 0.00 0.00 60 1017.5
20240620102638 52 157 1.0 5.0 0.00 0.00 0.00 60 1017.5
20240620101625 53 175 3.0 4.0 0.00 0.00 0.00 58 1017.7
20240620100635 54 180 3.0 4.0 0.00 0.00 0.00 57 1017.7
20240620095635 54 181 0.0 3.0 0.00 0.00 0.00 57 1017.7
20240620094628 54 181 2.0 3.0 0.00 0.00 0.00 56 1017.7
20240620093618 53 185 2.0 3.0 0.00 0.00 0.00 59 1017.7
20240620092628 53 186 1.0 3.0 0.00 0.00 0.00 62 1017.7
20240620091616 53 190 1.0 3.0 0.00 0.00 0.00 64 1017.7
20240620090630 53 178 1.0 3.0 0.00 0.00 0.00 62 1017.5
20240620085631 53 159 3.0 4.0 0.00 0.00 0.00 59 1017.4
20240620084621 54 159 1.0 2.0 0.00 0.00 0.00 58 1017.4
20240620083615 55 158 3.0 3.0 0.00 0.00 0.00 56 1017.5
20240620082624 55 145 1.0 3.0 0.00 0.00 0.00 54 1017.4
20240620081614 55 145 1.0 3.0 0.00 0.00 0.00 52 1017.4
20240620080623 55 148 2.0 6.0 0.00 0.00 0.00 52 1017.4
20240620075629 55 204 0.0 2.0 0.00 0.00 0.00 55 1017.5
20240620074616 55 204 1.0 2.0 0.00 0.00 0.00 55 1017.4
20240620073646 55 203 0.0 3.0 0.00 0.00 0.00 55 1017.5
20240620072615 55 205 1.0 2.0 0.00 0.00 0.00 59 1017.5
20240620071629 55 205 1.0 2.0 0.00 0.00 0.00 59 1017.5
20240620070619 55 205 0.0 1.0 0.00 0.00 0.00 56 1017.5
20240620065619 55 205 0.0 2.0 0.00 0.00 0.00 59 1017.4
20240620064628 56 205 1.0 2.0 0.00 0.00 0.00 58 1017.4
20240620063622 56 205 0.0 2.0 0.00 0.00 0.00 54 1017.4
20240620062630 57 205 0.0 1.0 0.00 0.00 0.00 56 1017.3
20240620061619 57 205 0.0 2.0 0.00 0.00 0.00 58 1017.4
20240620060613 58 205 1.0 2.0 0.00 0.00 0.00 57 1017.4
20240620055619 58 204 1.0 4.0 0.00 0.00 0.00 51 1017.3
20240620054629 59 255 0.0 2.0 0.00 0.00 0.00 55 1017.2
20240620053618 59 255 1.0 2.0 0.00 0.00 0.00 52 1017.1
20240620052628 59 255 0.0 2.0 0.00 0.00 0.00 52 1017.2